Time;durP1;ratioP1;P1;durP2;ratioP2;P2;SDS_P1;SDS_P2;PMS_P1;PMS_P2;Temp;Humidity;BMP_temperature;BMP_pressure;BME280_temperature;BME280_humidity;BME280_pressure;Samples;Min_cycle;Max_cycle;Signal;HPM_P1;HPM_P2
2023/09/01 00:01:22;;;;;;;6.60;4.13;;;20.80;92.20;;;;;;5021595;28;20203;-63
2023/09/01 00:04:14;;;;;;;5.17;3.60;;;20.80;92.30;;;;;;5023505;28;20222;-63
2023/09/01 00:06:41;;;;;;;5.33;3.77;;;20.70;92.30;;;;;;5028504;28;20216;-62
2023/09/01 00:09:08;;;;;;;8.07;3.83;;;20.70;92.30;;;;;;5021448;28;20199;-63
2023/09/01 00:11:35;;;;;;;4.10;3.67;;;20.70;92.40;;;;;;5022735;28;20195;-63
2023/09/01 00:14:04;;;;;;;6.67;3.50;;;20.70;92.50;;;;;;5025283;28;20290;-63
2023/09/01 00:16:31;;;;;;;4.87;4.47;;;20.60;92.50;;;;;;5021174;28;20298;-63
2023/09/01 00:18:58;;;;;;;8.67;4.13;;;20.60;92.60;;;;;;5024056;28;20202;-63
2023/09/01 00:21:25;;;;;;;5.00;4.10;;;20.60;92.60;;;;;;5020377;28;20220;-62
2023/09/01 00:23:52;;;;;;;4.63;3.90;;;20.60;92.70;;;;;;5023384;28;20261;-63
2023/09/01 00:26:19;;;;;;;7.07;4.87;;;20.60;92.70;;;;;;5027036;28;20218;-63
2023/09/01 00:28:47;;;;;;;7.07;4.57;;;20.60;92.70;;;;;;5021163;28;20234;-63
2023/09/01 00:31:17;;;;;;;6.73;4.80;;;20.60;92.80;;;;;;5020557;28;20198;-62
2023/09/01 00:33:44;;;;;;;5.67;4.13;;;20.60;92.80;;;;;;5026247;28;20203;-62
2023/09/01 00:36:11;;;;;;;5.67;3.87;;;20.60;92.80;;;;;;5028214;28;20604;-62
2023/09/01 00:38:38;;;;;;;9.40;4.20;;;20.60;92.70;;;;;;5031811;28;20202;-63
2023/09/01 00:41:06;;;;;;;6.93;4.70;;;20.50;92.70;;;;;;5022900;28;20261;-63
2023/09/01 00:43:34;;;;;;;5.13;4.63;;;20.50;92.70;;;;;;5023336;28;20219;-63
2023/09/01 00:46:01;;;;;;;8.07;5.10;;;20.50;92.80;;;;;;5028998;28;20561;-63
2023/09/01 00:48:29;;;;;;;8.57;4.90;;;20.50;92.80;;;;;;5031784;28;20234;-63
2023/09/01 00:50:56;;;;;;;8.53;4.67;;;20.40;92.80;;;;;;5026265;28;20257;-63
2023/09/01 00:53:23;;;;;;;7.30;5.20;;;20.40;92.90;;;;;;5029402;28;20246;-62
2023/09/01 00:55:51;;;;;;;5.53;5.03;;;20.30;93.00;;;;;;5026480;28;20228;-62
2023/09/01 00:58:18;;;;;;;6.10;4.70;;;20.30;93.10;;;;;;5029045;28;20257;-63
2023/09/01 01:00:46;;;;;;;7.50;5.27;;;20.30;93.20;;;;;;5024340;28;20299;-63
2023/09/01 01:03:14;;;;;;;6.50;5.60;;;20.30;93.20;;;;;;5024069;28;20293;-63
2023/09/01 01:05:47;;;;;;;11.07;5.73;;;20.30;93.20;;;;;;5028123;28;20217;-62
2023/09/01 01:08:32;;;;;;;8.83;6.20;;;20.30;93.20;;;;;;5024175;28;20556;-63
2023/09/01 01:11:09;;;;;;;10.20;7.37;;;20.30;93.30;;;;;;5021927;28;20206;-62
2023/09/01 01:13:43;;;;;;;6.03;5.43;;;20.30;93.30;;;;;;5025454;28;20222;-62
2023/09/01 01:16:12;;;;;;;7.57;5.53;;;20.30;93.30;;;;;;5028490;28;20200;-62
2023/09/01 01:18:41;;;;;;;8.60;7.33;;;20.30;93.30;;;;;;5029718;28;20623;-63
2023/09/01 01:21:21;;;;;;;12.87;6.07;;;20.30;93.40;;;;;;5022655;28;20203;-62
2023/09/01 01:23:52;;;;;;;8.10;5.53;;;20.30;93.40;;;;;;5022422;28;20199;-62
2023/09/01 01:26:19;;;;;;;11.93;8.00;;;20.20;93.40;;;;;;5022705;28;20214;-62
2023/09/01 01:28:46;;;;;;;7.33;6.63;;;20.20;93.40;;;;;;5029244;28;20215;-64
2023/09/01 01:31:13;;;;;;;11.03;7.93;;;20.30;93.40;;;;;;5057969;28;20666;-63
2023/09/01 01:33:59;;;;;;;10.27;8.00;;;20.20;93.40;;;;;;5019450;28;20526;-63
2023/09/01 01:36:40;;;;;;;9.17;8.23;;;20.20;93.50;;;;;;5023942;28;20291;-63
2023/09/01 01:39:17;;;;;;;12.60;8.30;;;20.20;93.50;;;;;;5032630;28;20202;-63
2023/09/01 01:41:52;;;;;;;10.70;7.97;;;20.20;93.50;;;;;;5041322;28;20245;-63
2023/09/01 01:44:26;;;;;;;11.90;8.63;;;20.20;93.60;;;;;;5021508;28;20200;-63
2023/09/01 01:46:54;;;;;;;9.90;8.47;;;20.20;93.50;;;;;;5020184;28;20210;-63
2023/09/01 01:49:21;;;;;;;12.93;8.40;;;20.20;93.50;;;;;;5032327;28;20656;-62
2023/09/01 01:51:49;;;;;;;10.73;7.30;;;20.20;93.50;;;;;;5028819;28;20279;-62
2023/09/01 01:54:16;;;;;;;9.90;8.87;;;20.10;93.40;;;;;;5008745;28;20243;-62
2023/09/01 01:56:44;;;;;;;10.77;8.67;;;20.10;93.40;;;;;;5020197;28;20210;-62
2023/09/01 01:59:11;;;;;;;12.50;8.73;;;20.10;93.40;;;;;;5055805;28;20212;-62
2023/09/01 02:01:38;;;;;;;9.13;8.23;;;20.10;93.40;;;;;;5015329;28;20199;-62
2023/09/01 02:04:05;;;;;;;10.03;8.10;;;20.10;93.40;;;;;;5026671;28;20202;-63
2023/09/01 02:06:33;;;;;;;12.27;8.67;;;20.10;93.50;;;;;;5020704;28;20219;-62
2023/09/01 02:09:00;;;;;;;9.47;8.57;;;20.10;93.50;;;;;;5031660;28;20223;-62
2023/09/01 02:11:27;;;;;;;10.40;8.47;;;20.10;93.60;;;;;;5021022;28;20230;-62
2023/09/01 02:13:54;;;;;;;8.87;7.97;;;20.10;93.60;;;;;;5027690;28;20226;-63
2023/09/01 02:16:24;;;;;;;10.93;8.27;;;20.10;93.60;;;;;;5033870;28;20207;-63
2023/09/01 02:18:51;;;;;;;9.23;8.17;;;20.00;93.90;;;;;;5032818;28;20604;-62
2023/09/01 02:21:21;;;;;;;8.70;7.60;;;20.00;93.60;;;;;;5023792;28;20202;-62
2023/09/01 02:23:48;;;;;;;12.70;7.10;;;20.00;93.50;;;;;;5027081;28;20636;-62
2023/09/01 02:26:20;;;;;;;11.20;7.73;;;20.00;93.50;;;;;;5028885;28;20307;-62
2023/09/01 02:28:49;;;;;;;13.07;8.33;;;19.90;93.40;;;;;;5031658;28;20222;-62
2023/09/01 02:31:17;;;;;;;8.97;7.93;;;19.90;93.40;;;;;;5020846;28;20543;-63
2023/09/01 02:33:44;;;;;;;8.13;7.33;;;19.90;93.40;;;;;;5027112;28;20629;-63
2023/09/01 02:36:27;;;;;;;12.23;8.10;;;19.90;93.40;;;;;;5028772;28;20276;-62
2023/09/01 02:38:54;;;;;;;7.67;6.90;;;19.80;93.40;;;;;;5023465;28;20200;-62
2023/09/01 02:41:23;;;;;;;9.10;8.00;;;19.90;93.40;;;;;;5021900;28;20520;-63
2023/09/01 02:43:50;;;;;;;8.70;7.80;;;19.80;93.40;;;;;;5021834;28;20303;-62
2023/09/01 02:46:17;;;;;;;8.33;7.50;;;19.80;93.40;;;;;;5031692;28;20231;-62
2023/09/01 02:48:45;;;;;;;8.27;7.47;;;19.70;93.40;;;;;;5021511;28;20222;-62
2023/09/01 02:51:12;;;;;;;10.07;7.20;;;19.70;93.30;;;;;;5025830;28;20282;-62
2023/09/01 02:53:39;;;;;;;7.63;6.90;;;19.70;93.40;;;;;;5028000;28;20246;-62
2023/09/01 02:56:06;;;;;;;7.30;6.60;;;19.70;93.50;;;;;;5025969;28;20192;-62
2023/09/01 02:58:35;;;;;;;7.53;6.50;;;19.70;93.60;;;;;;5029039;28;20221;-62
2023/09/01 03:01:10;;;;;;;7.20;6.47;;;19.60;93.60;;;;;;5022917;28;20243;-63
2023/09/01 03:03:40;;;;;;;9.37;6.33;;;19.70;93.60;;;;;;5031423;28;20237;-63
2023/09/01 03:06:10;;;;;;;12.60;6.63;;;19.60;93.80;;;;;;5028171;28;20599;-62
2023/09/01 03:08:39;;;;;;;6.90;5.67;;;19.60;93.40;;;;;;5024204;28;20237;-62
2023/09/01 03:11:06;;;;;;;9.23;5.50;;;19.60;93.30;;;;;;5016871;28;20567;-63
2023/09/01 03:13:33;;;;;;;9.40;5.00;;;19.60;93.10;;;;;;5028673;28;20221;-62
2023/09/01 03:16:03;;;;;;;8.63;5.07;;;19.50;93.00;;;;;;5028689;28;20231;-63
2023/09/01 03:18:32;;;;;;;5.77;4.13;;;19.50;92.90;;;;;;5038988;28;20215;-63
2023/09/01 03:21:10;;;;;;;6.37;4.70;;;19.50;92.80;;;;;;5031120;28;20212;-63
2023/09/01 03:23:37;;;;;;;8.43;4.67;;;19.50;92.70;;;;;;5023859;28;20227;-62
2023/09/01 03:26:08;;;;;;;5.70;4.20;;;19.50;92.60;;;;;;5019085;28;20211;-62
2023/09/01 03:28:35;;;;;;;4.30;3.70;;;19.40;92.50;;;;;;5023558;28;20603;-62
2023/09/01 03:31:09;;;;;;;8.10;4.20;;;19.40;92.50;;;;;;5030978;28;20197;-62
2023/09/01 03:33:38;;;;;;;5.93;3.77;;;19.40;92.50;;;;;;5026232;28;20207;-63
2023/09/01 03:36:07;;;;;;;7.70;4.20;;;19.40;92.50;;;;;;5020452;28;20194;-63
2023/09/01 03:38:36;;;;;;;5.90;4.27;;;19.40;92.50;;;;;;5023931;28;20301;-63
2023/09/01 03:41:04;;;;;;;4.93;3.80;;;19.40;92.50;;;;;;5023292;28;20216;-62
2023/09/01 03:43:32;;;;;;;6.87;3.87;;;19.40;92.50;;;;;;5026286;28;20211;-62
2023/09/01 03:45:59;;;;;;;7.60;3.70;;;19.40;92.40;;;;;;5004137;28;20230;-62
2023/09/01 03:48:26;;;;;;;5.47;3.90;;;19.30;92.40;;;;;;5023217;28;20664;-63
2023/09/01 03:51:11;;;;;;;6.60;4.20;;;19.40;92.40;;;;;;5030204;28;20267;-62
2023/09/01 03:53:39;;;;;;;4.70;3.80;;;19.30;92.50;;;;;;5016966;28;20235;-62
2023/09/01 03:56:08;;;;;;;6.90;3.90;;;19.30;92.50;;;;;;5019186;28;20216;-62
2023/09/01 03:58:37;;;;;;;5.90;3.40;;;19.30;92.50;;;;;;5023355;28;20219;-63
2023/09/01 04:01:09;;;;;;;9.60;4.40;;;19.30;92.60;;;;;;5025095;28;20217;-63
2023/09/01 04:03:36;;;;;;;8.70;3.60;;;19.20;92.60;;;;;;5023953;28;20237;-63
2023/09/01 04:06:05;;;;;;;8.13;3.70;;;19.20;92.50;;;;;;5023324;28;20209;-63
2023/09/01 04:08:32;;;;;;;7.97;3.40;;;19.20;92.60;;;;;;5036361;28;20219;-62
2023/09/01 04:11:00;;;;;;;5.27;3.60;;;19.20;92.60;;;;;;5027736;28;20211;-63
2023/09/01 04:13:27;;;;;;;6.20;3.47;;;19.20;92.50;;;;;;5022055;28;20585;-62
2023/09/01 04:15:55;;;;;;;5.03;3.00;;;19.20;92.50;;;;;;5020640;28;20268;-62
2023/09/01 04:18:24;;;;;;;5.10;3.30;;;19.20;92.50;;;;;;5022452;28;20256;-62
2023/09/01 04:20:53;;;;;;;4.87;3.10;;;19.20;92.40;;;;;;5028766;28;20215;-62
2023/09/01 04:23:20;;;;;;;8.63;3.00;;;19.10;92.20;;;;;;5039373;28;20209;-62
2023/09/01 04:25:48;;;;;;;6.50;2.90;;;19.10;92.20;;;;;;5030360;28;20261;-62
2023/09/01 04:28:19;;;;;;;3.80;3.00;;;19.10;92.20;;;;;;5052849;28;20230;-62
2023/09/01 04:30:48;;;;;;;4.57;3.13;;;19.10;92.30;;;;;;5023281;28;20220;-62
2023/09/01 04:33:15;;;;;;;5.70;3.43;;;19.00;92.30;;;;;;5037083;28;20216;-63
2023/09/01 04:35:43;;;;;;;5.70;2.90;;;19.00;92.30;;;;;;5028300;28;20216;-63
2023/09/01 04:38:10;;;;;;;10.10;3.53;;;19.00;92.40;;;;;;5032187;28;20254;-63
2023/09/01 04:40:38;;;;;;;6.07;3.30;;;19.00;92.60;;;;;;5030564;28;20269;-62
2023/09/01 04:43:05;;;;;;;4.43;3.10;;;19.00;92.20;;;;;;5025184;28;20206;-62
2023/09/01 04:45:32;;;;;;;4.47;3.40;;;19.00;92.10;;;;;;5024588;28;20198;-62
2023/09/01 04:47:59;;;;;;;4.33;3.43;;;18.90;92.20;;;;;;5028230;28;20232;-63
2023/09/01 04:50:28;;;;;;;7.43;3.60;;;18.90;92.20;;;;;;5030725;28;20699;-62
2023/09/01 04:52:55;;;;;;;5.37;3.07;;;18.90;92.20;;;;;;5029571;28;20237;-62
2023/09/01 04:55:22;;;;;;;6.03;3.60;;;18.90;92.30;;;;;;5036790;28;20266;-63
2023/09/01 04:57:49;;;;;;;6.40;3.30;;;18.90;92.30;;;;;;5018548;28;20641;-62
2023/09/01 05:00:16;;;;;;;5.47;3.90;;;18.90;92.40;;;;;;5026271;28;20298;-63
2023/09/01 05:02:45;;;;;;;7.17;4.23;;;18.90;92.40;;;;;;5023219;28;20713;-63
2023/09/01 05:05:13;;;;;;;5.40;3.87;;;19.00;92.50;;;;;;5022211;28;20207;-62
2023/09/01 05:07:42;;;;;;;5.43;3.60;;;19.00;92.50;;;;;;5018681;28;20211;-62
2023/09/01 05:10:10;;;;;;;7.07;3.67;;;19.00;92.50;;;;;;5019265;28;20194;-63
2023/09/01 05:12:37;;;;;;;11.33;3.40;;;19.10;92.40;;;;;;5041609;28;20215;-62
2023/09/01 05:15:05;;;;;;;8.23;3.63;;;19.10;92.40;;;;;;5059233;28;20218;-62
2023/09/01 05:17:32;;;;;;;5.00;3.77;;;19.10;92.40;;;;;;5023970;28;20220;-62
2023/09/01 05:19:59;;;;;;;5.97;3.77;;;19.20;92.30;;;;;;5025061;28;20210;-62
2023/09/01 05:22:26;;;;;;;7.63;3.80;;;19.20;92.30;;;;;;5025762;28;20631;-62
2023/09/01 05:24:53;;;;;;;4.73;4.23;;;19.20;92.30;;;;;;5024272;28;20261;-62
2023/09/01 05:27:20;;;;;;;6.63;4.03;;;19.30;92.30;;;;;;5029541;28;20207;-62
2023/09/01 05:29:48;;;;;;;5.60;4.37;;;19.40;92.30;;;;;;5020066;28;20227;-63
2023/09/01 05:32:16;;;;;;;8.60;3.40;;;19.40;92.20;;;;;;5033261;28;20636;-62
2023/09/01 05:34:43;;;;;;;5.37;3.93;;;19.50;92.10;;;;;;5025842;28;20253;-62
2023/09/01 05:37:14;;;;;;;6.33;3.77;;;19.60;92.10;;;;;;5026327;28;20547;-62
2023/09/01 05:39:42;;;;;;;6.83;3.73;;;19.70;92.00;;;;;;5024340;28;20556;-63
2023/09/01 05:42:10;;;;;;;7.60;4.10;;;19.80;91.90;;;;;;5021745;28;20196;-63
2023/09/01 05:44:37;;;;;;;6.87;4.00;;;19.90;91.80;;;;;;5024115;28;20207;-63
2023/09/01 05:47:05;;;;;;;6.00;3.90;;;20.00;91.60;;;;;;5030359;28;20716;-62
2023/09/01 05:49:33;;;;;;;7.17;3.70;;;20.10;91.30;;;;;;5031746;28;20226;-63
2023/09/01 05:52:01;;;;;;;7.50;4.57;;;20.20;91.00;;;;;;5055377;28;20207;-62
2023/09/01 05:54:28;;;;;;;10.33;3.83;;;20.30;90.70;;;;;;5019346;28;20238;-62
2023/09/01 05:56:55;;;;;;;5.73;3.30;;;20.40;90.50;;;;;;5023646;28;20192;-62
2023/09/01 05:59:22;;;;;;;5.00;3.87;;;20.50;90.40;;;;;;5025710;28;20203;-62
2023/09/01 06:01:49;;;;;;;5.13;3.83;;;20.70;90.20;;;;;;5023960;28;20212;-62
2023/09/01 06:04:16;;;;;;;4.87;3.60;;;20.80;90.00;;;;;;5024019;28;20230;-62
2023/09/01 06:06:43;;;;;;;8.83;4.73;;;21.00;89.30;;;;;;5054525;28;20551;-63
2023/09/01 06:09:11;;;;;;;7.20;4.37;;;21.20;88.30;;;;;;5025243;28;20230;-62
2023/09/01 06:11:39;;;;;;;8.90;4.30;;;21.40;87.50;;;;;;5031921;28;20203;-62
2023/09/01 06:14:06;;;;;;;8.17;4.70;;;21.60;86.50;;;;;;5030436;28;20203;-62
2023/09/01 06:16:33;;;;;;;7.00;4.30;;;21.80;85.70;;;;;;5023142;28;20625;-63
2023/09/01 06:19:01;;;;;;;6.43;3.63;;;21.80;85.40;;;;;;5025673;28;20196;-62
2023/09/01 06:21:28;;;;;;;11.03;4.30;;;22.00;85.10;;;;;;5025143;28;20218;-62
2023/09/01 06:23:55;;;;;;;7.17;4.10;;;22.00;85.20;;;;;;5032026;28;20205;-62
2023/09/01 06:26:22;;;;;;;9.87;3.90;;;22.10;84.20;;;;;;5026980;28;20575;-62
2023/09/01 06:28:49;;;;;;;7.33;4.00;;;22.20;83.90;;;;;;5026855;28;20223;-62
2023/09/01 06:31:16;;;;;;;8.13;4.50;;;22.20;83.50;;;;;;5021879;28;20207;-63
2023/09/01 06:33:46;;;;;;;6.87;4.47;;;22.30;83.20;;;;;;5025089;28;20708;-63
2023/09/01 06:36:13;;;;;;;5.80;4.53;;;22.30;83.00;;;;;;5022095;28;20196;-63
2023/09/01 06:38:41;;;;;;;6.17;3.83;;;22.40;82.60;;;;;;5030294;28;20221;-63
2023/09/01 06:41:09;;;;;;;7.80;3.87;;;22.40;82.10;;;;;;5021538;28;20204;-62
2023/09/01 06:43:36;;;;;;;5.13;3.77;;;22.50;82.10;;;;;;5021064;28;20227;-62
2023/09/01 06:46:03;;;;;;;9.87;4.20;;;22.60;81.80;;;;;;5055801;28;20203;-62
2023/09/01 06:48:31;;;;;;;6.20;3.20;;;22.70;81.40;;;;;;5021299;28;20231;-62
2023/09/01 06:50:59;;;;;;;4.00;2.70;;;22.70;81.00;;;;;;5027524;28;20207;-62
2023/09/01 06:53:27;;;;;;;4.87;2.83;;;22.80;80.80;;;;;;5024299;28;20239;-63
2023/09/01 06:55:54;;;;;;;7.83;3.03;;;22.90;80.50;;;;;;5019717;28;20210;-62
2023/09/01 06:58:21;;;;;;;6.60;3.10;;;23.00;79.80;;;;;;5018075;28;20211;-62
2023/09/01 07:00:51;;;;;;;6.67;2.93;;;23.10;79.50;;;;;;5023469;28;20207;-63
2023/09/01 07:03:19;;;;;;;6.27;3.73;;;23.10;79.00;;;;;;5025796;28;20196;-62
2023/09/01 07:05:57;;;;;;;8.23;3.50;;;23.20;78.50;;;;;;5019751;28;20267;-62
2023/09/01 07:08:28;;;;;;;6.00;4.17;;;23.30;78.20;;;;;;5017903;28;20302;-62
2023/09/01 07:11:10;;;;;;;8.07;3.93;;;23.40;77.80;;;;;;5020586;28;20293;-63
2023/09/01 07:13:37;;;;;;;8.90;4.77;;;23.50;77.30;;;;;;5022362;28;20245;-63
2023/09/01 07:16:05;;;;;;;6.47;4.40;;;23.50;77.00;;;;;;5022136;28;20245;-63
2023/09/01 07:18:33;;;;;;;5.33;3.57;;;23.60;77.00;;;;;;5020638;28;20200;-62
2023/09/01 07:21:00;;;;;;;10.17;4.30;;;23.70;77.20;;;;;;5022143;28;20286;-63
2023/09/01 07:23:27;;;;;;;6.30;4.93;;;23.80;77.00;;;;;;5020986;28;20614;-63
2023/09/01 07:25:55;;;;;;;10.87;4.30;;;23.90;76.90;;;;;;5022562;28;20686;-62
2023/09/01 14:23:41;;;;;;;7.30;3.27;;;30.80;51.30;;;;;;5054926;27;1502160;-60
2023/09/01 14:26:11;;;;;;;5.07;2.73;;;30.70;51.70;;;;;;5111594;27;20209;-61
2023/09/01 14:28:38;;;;;;;4.50;2.83;;;30.60;51.60;;;;;;5095217;28;20300;-61
2023/09/01 14:31:06;;;;;;;4.30;2.53;;;30.50;51.50;;;;;;5105139;28;20188;-61
2023/09/01 14:33:33;;;;;;;6.10;2.73;;;30.50;51.90;;;;;;5090302;28;20216;-61
2023/09/01 14:36:13;;;;;;;5.30;2.47;;;30.40;51.90;;;;;;5093082;28;20200;-61
2023/09/01 14:38:41;;;;;;;3.80;2.47;;;30.40;51.60;;;;;;5085014;28;20738;-61
2023/09/01 14:41:14;;;;;;;4.07;2.60;;;30.30;51.50;;;;;;5103890;27;20638;-61
2023/09/01 14:43:41;;;;;;;6.50;2.80;;;30.30;51.20;;;;;;5102769;28;20193;-61
2023/09/01 14:46:08;;;;;;;7.77;2.50;;;30.20;51.70;;;;;;5104560;28;20200;-61
2023/09/01 14:48:35;;;;;;;3.13;2.47;;;30.00;51.50;;;;;;5101452;28;20209;-61
2023/09/01 14:51:03;;;;;;;4.60;2.40;;;30.00;51.10;;;;;;5099883;28;20632;-61
2023/09/01 14:53:30;;;;;;;5.27;2.77;;;29.90;51.90;;;;;;5078287;28;20201;-60
2023/09/01 14:55:58;;;;;;;3.97;2.60;;;29.90;51.80;;;;;;5075464;28;20211;-61
2023/09/01 14:58:25;;;;;;;4.47;2.83;;;29.90;52.20;;;;;;5103554;28;20196;-61
2023/09/01 15:01:02;;;;;;;5.13;2.43;;;29.80;52.10;;;;;;5093840;28;20205;-61
2023/09/01 15:03:30;;;;;;;3.47;2.23;;;29.80;51.60;;;;;;5098290;28;20206;-61
2023/09/01 15:05:58;;;;;;;4.57;2.70;;;29.80;51.00;;;;;;5075293;28;20525;-61
2023/09/01 15:08:25;;;;;;;5.67;2.50;;;29.80;50.50;;;;;;5103693;28;20239;-61
2023/09/01 15:10:52;;;;;;;3.67;2.27;;;29.70;50.30;;;;;;5100172;28;20205;-61
2023/09/01 15:13:22;;;;;;;4.80;2.30;;;29.70;50.50;;;;;;5098794;28;20211;-61
2023/09/01 15:15:49;;;;;;;5.40;2.37;;;29.70;51.00;;;;;;5095609;28;20196;-62
2023/09/01 15:18:16;;;;;;;2.77;2.20;;;29.70;50.60;;;;;;5105410;28;20201;-61
2023/09/01 15:20:43;;;;;;;4.30;2.33;;;29.60;50.70;;;;;;5082360;28;20220;-61
2023/09/01 15:23:11;;;;;;;5.47;2.77;;;29.60;50.80;;;;;;5096270;28;20319;-61
2023/09/01 15:25:39;;;;;;;4.43;2.40;;;29.50;51.10;;;;;;5106219;28;20204;-61
2023/09/01 15:28:07;;;;;;;3.33;2.10;;;29.50;51.00;;;;;;5100084;28;20224;-61
2023/09/01 15:30:34;;;;;;;7.33;2.87;;;29.40;51.50;;;;;;5102948;28;20197;-61
2023/09/01 15:33:01;;;;;;;5.53;2.67;;;29.40;51.60;;;;;;5101664;28;20197;-61
2023/09/01 15:35:28;;;;;;;6.80;2.57;;;29.40;51.40;;;;;;5088322;28;20197;-61
2023/09/01 15:38:01;;;;;;;2.70;2.10;;;29.30;51.70;;;;;;5105189;28;20212;-61
2023/09/01 15:40:28;;;;;;;4.17;1.93;;;29.30;51.90;;;;;;5089981;28;20192;-61
2023/09/01 15:42:56;;;;;;;3.50;2.37;;;29.30;51.40;;;;;;5098064;28;20200;-61
2023/09/01 15:45:23;;;;;;;2.70;2.03;;;29.20;52.10;;;;;;5097215;28;20605;-61
2023/09/01 15:47:50;;;;;;;4.03;2.17;;;29.20;52.20;;;;;;5104799;28;20201;-61
2023/09/01 15:50:17;;;;;;;3.47;2.37;;;29.20;52.20;;;;;;5089908;28;20200;-61
2023/09/01 15:53:01;;;;;;;7.03;3.00;;;29.10;52.20;;;;;;5096068;28;20196;-60
2023/09/01 15:55:29;;;;;;;4.57;2.47;;;29.10;52.20;;;;;;5102957;28;20189;-60
2023/09/01 15:57:57;;;;;;;5.47;2.07;;;29.10;52.90;;;;;;5109384;28;20233;-61
2023/09/01 16:00:24;;;;;;;8.40;3.00;;;29.10;53.20;;;;;;5089914;28;20521;-61
2023/09/01 16:02:52;;;;;;;4.80;2.80;;;29.10;54.00;;;;;;5093870;28;20193;-61
2023/09/01 16:05:19;;;;;;;5.33;2.10;;;29.00;53.10;;;;;;5098990;28;20197;-61
2023/09/01 16:07:46;;;;;;;6.03;2.50;;;29.00;53.20;;;;;;5109717;28;20227;-61
2023/09/01 16:10:13;;;;;;;2.57;1.93;;;29.00;53.00;;;;;;5111155;28;20311;-61
2023/09/01 16:12:41;;;;;;;4.23;2.30;;;28.90;53.00;;;;;;5105329;28;20208;-60
2023/09/01 16:15:09;;;;;;;7.87;3.10;;;28.90;53.30;;;;;;5083960;28;20201;-61
2023/09/01 16:17:36;;;;;;;4.13;2.43;;;28.90;53.60;;;;;;5108518;28;20220;-61
2023/09/01 16:20:04;;;;;;;3.90;1.80;;;28.80;53.20;;;;;;5107828;28;20205;-61
2023/09/01 16:22:31;;;;;;;6.93;2.70;;;28.80;54.00;;;;;;5106959;28;20612;-61
2023/09/01 16:24:58;;;;;;;7.80;3.03;;;28.80;54.40;;;;;;5106998;28;20204;-61
2023/09/01 16:27:27;;;;;;;4.43;2.87;;;28.70;54.10;;;;;;5107320;28;20222;-61
2023/09/01 16:29:54;;;;;;;4.63;2.57;;;28.70;54.10;;;;;;5112898;28;20209;-61
2023/09/01 16:32:21;;;;;;;5.80;2.13;;;28.60;54.50;;;;;;5109529;27;20207;-61
2023/09/01 16:34:49;;;;;;;4.37;2.33;;;28.60;55.20;;;;;;5091720;28;20690;-61
2023/09/01 16:37:16;;;;;;;4.23;2.43;;;28.50;55.40;;;;;;5112847;28;20235;-61
2023/09/01 16:39:43;;;;;;;6.87;2.60;;;28.40;55.50;;;;;;5103818;28;20212;-61
2023/09/01 16:42:10;;;;;;;4.70;2.57;;;28.40;55.90;;;;;;5110290;28;20227;-61
2023/09/01 16:44:37;;;;;;;6.20;2.23;;;28.30;56.50;;;;;;5109821;28;20210;-61
2023/09/01 16:47:04;;;;;;;6.30;2.20;;;28.20;56.70;;;;;;5110936;28;20222;-61
2023/09/01 16:49:31;;;;;;;2.40;2.10;;;28.20;57.10;;;;;;5106571;28;20232;-61
2023/09/01 16:51:58;;;;;;;7.87;2.70;;;28.10;57.10;;;;;;5108078;28;20258;-61
2023/09/01 16:54:25;;;;;;;9.77;2.77;;;28.00;57.50;;;;;;5108752;28;20214;-61
2023/09/01 16:56:53;;;;;;;12.10;2.70;;;28.00;57.70;;;;;;5087612;28;20201;-61
2023/09/01 16:59:20;;;;;;;5.57;1.93;;;27.90;57.70;;;;;;5109899;28;20541;-61
2023/09/01 17:01:47;;;;;;;3.87;1.90;;;27.90;57.70;;;;;;5095369;28;20215;-61
2023/09/01 17:04:14;;;;;;;6.97;2.80;;;27.90;57.70;;;;;;5107312;28;20633;-61
2023/09/01 17:06:41;;;;;;;2.73;2.17;;;27.80;57.80;;;;;;5090411;28;20631;-61
2023/09/01 17:09:08;;;;;;;4.70;2.47;;;27.90;57.20;;;;;;5107596;28;20221;-61
2023/09/01 17:11:35;;;;;;;2.50;1.90;;;27.90;56.60;;;;;;5086920;28;20197;-60
2023/09/01 17:14:03;;;;;;;11.10;2.30;;;27.90;56.70;;;;;;5104500;28;20649;-61
2023/09/01 17:16:30;;;;;;;6.80;2.10;;;27.80;56.80;;;;;;5091546;28;20219;-61
2023/09/01 17:18:57;;;;;;;6.07;3.07;;;27.80;57.10;;;;;;5107546;28;20214;-61
2023/09/01 17:21:24;;;;;;;7.10;2.27;;;27.70;57.20;;;;;;5102987;28;20229;-61
2023/09/01 17:23:51;;;;;;;14.50;3.30;;;27.70;57.50;;;;;;5104340;28;20357;-61
2023/09/01 17:26:18;;;;;;;9.47;2.43;;;27.70;58.10;;;;;;5091845;28;20212;-62
2023/09/01 17:28:46;;;;;;;2.73;2.37;;;27.60;58.50;;;;;;5088598;28;20576;-61
2023/09/01 17:31:13;;;;;;;5.20;2.53;;;27.60;59.00;;;;;;5078417;28;20213;-61
2023/09/01 17:33:41;;;;;;;8.73;3.00;;;27.50;59.40;;;;;;5107974;28;20193;-61
2023/09/01 17:36:09;;;;;;;5.70;2.80;;;27.50;60.00;;;;;;5104458;28;20208;-61
2023/09/01 17:38:37;;;;;;;4.30;2.93;;;27.40;60.50;;;;;;5107090;28;20584;-61
2023/09/01 17:41:06;;;;;;;5.47;2.40;;;27.30;61.00;;;;;;5083035;28;20209;-61
2023/09/01 17:43:33;;;;;;;5.83;2.70;;;27.20;61.60;;;;;;5092367;28;20199;-61
2023/09/01 17:46:01;;;;;;;5.63;2.53;;;27.20;62.00;;;;;;5071662;28;20213;-61
2023/09/01 17:48:29;;;;;;;4.00;2.50;;;27.10;62.30;;;;;;5107468;28;20197;-61
2023/09/01 17:50:57;;;;;;;8.53;2.27;;;27.00;62.70;;;;;;5104974;28;20628;-61
2023/09/01 17:53:24;;;;;;;6.47;3.07;;;26.90;63.10;;;;;;5072478;28;20211;-61
2023/09/01 17:55:51;;;;;;;4.70;2.87;;;26.90;63.80;;;;;;5075954;28;20661;-61
2023/09/01 17:58:19;;;;;;;8.40;2.93;;;26.80;64.20;;;;;;5104907;28;20298;-61
2023/09/01 18:00:46;;;;;;;9.33;3.37;;;26.80;64.60;;;;;;5104644;28;20227;-61
2023/09/01 18:03:17;;;;;;;5.97;2.63;;;26.70;64.80;;;;;;5102210;28;20217;-61
2023/09/01 18:05:45;;;;;;;6.67;3.07;;;26.60;65.20;;;;;;5102212;28;20219;-61
2023/09/01 18:08:13;;;;;;;9.53;3.70;;;26.60;65.60;;;;;;5090980;28;20291;-61
2023/09/01 18:10:41;;;;;;;6.67;2.60;;;26.50;65.60;;;;;;5076308;28;20229;-61
2023/09/01 18:13:10;;;;;;;7.73;3.40;;;26.50;65.90;;;;;;5078543;28;20202;-61
2023/09/01 18:15:38;;;;;;;8.67;3.27;;;26.50;66.20;;;;;;5094132;28;20200;-61
2023/09/01 18:18:05;;;;;;;3.20;2.80;;;26.40;66.20;;;;;;5102648;28;20241;-61
2023/09/01 18:20:33;;;;;;;4.83;2.77;;;26.40;66.00;;;;;;5092857;28;20210;-61
2023/09/01 18:23:03;;;;;;;4.40;2.27;;;26.30;65.90;;;;;;5102810;28;20250;-61
2023/09/01 18:25:33;;;;;;;5.60;2.60;;;26.30;65.80;;;;;;5089378;28;20204;-61
2023/09/01 18:28:01;;;;;;;6.10;3.10;;;26.30;66.00;;;;;;5089624;28;20215;-62
2023/09/01 18:30:29;;;;;;;3.13;2.63;;;26.20;66.40;;;;;;5106343;27;20536;-61
2023/09/01 18:33:05;;;;;;;7.50;3.67;;;26.20;66.80;;;;;;5071614;28;20752;-61
2023/09/01 18:35:34;;;;;;;9.53;2.77;;;26.10;67.30;;;;;;5075494;28;20648;-61
2023/09/01 18:38:02;;;;;;;6.87;3.17;;;26.10;67.80;;;;;;5101428;28;20632;-61
2023/09/01 18:40:33;;;;;;;6.63;3.23;;;26.00;68.90;;;;;;5090030;28;20198;-61
2023/09/01 18:43:00;;;;;;;5.87;3.53;;;25.90;69.70;;;;;;5069975;28;20205;-61
2023/09/01 18:45:33;;;;;;;6.43;2.90;;;25.80;69.90;;;;;;5084822;28;20279;-61
2023/09/01 18:48:08;;;;;;;5.47;3.17;;;25.70;70.00;;;;;;5091057;28;20197;-61
2023/09/01 18:50:42;;;;;;;5.47;2.63;;;25.60;70.00;;;;;;5105005;28;20223;-61
2023/09/01 18:53:10;;;;;;;4.33;2.30;;;25.60;69.70;;;;;;5103063;28;20213;-61
2023/09/01 18:55:42;;;;;;;4.50;2.90;;;25.60;69.80;;;;;;5101967;28;20201;-61
2023/09/01 18:58:13;;;;;;;5.10;2.57;;;25.50;70.10;;;;;;5091350;28;20233;-62
2023/09/01 19:00:42;;;;;;;4.00;2.17;;;25.50;70.40;;;;;;5092409;28;20306;-61
2023/09/01 19:03:10;;;;;;;6.57;2.90;;;25.40;70.50;;;;;;5106575;28;20230;-61
2023/09/01 19:05:40;;;;;;;4.33;2.60;;;25.40;70.70;;;;;;5089749;28;20646;-61
2023/09/01 19:08:22;;;;;;;11.57;3.03;;;25.40;71.00;;;;;;5087991;28;20290;-61
2023/09/01 19:10:53;;;;;;;5.73;2.20;;;25.30;71.50;;;;;;5068221;28;20209;-61
2023/09/01 19:13:23;;;;;;;8.43;2.20;;;25.30;71.60;;;;;;5093830;28;20203;-61
2023/09/01 19:15:59;;;;;;;4.40;2.33;;;25.20;71.80;;;;;;5092158;28;20214;-62
2023/09/01 19:18:33;;;;;;;7.27;2.33;;;25.20;72.20;;;;;;5097625;28;20221;-60
2023/09/01 19:21:01;;;;;;;3.50;2.10;;;25.20;72.60;;;;;;5105971;28;20199;-61
2023/09/01 19:23:30;;;;;;;8.10;2.40;;;25.20;72.60;;;;;;5101574;28;20237;-61
2023/09/01 19:26:02;;;;;;;7.03;2.20;;;25.10;72.60;;;;;;5102920;28;20211;-61
2023/09/01 19:28:30;;;;;;;8.47;2.53;;;25.00;72.70;;;;;;5100061;28;20597;-61
2023/09/01 19:31:06;;;;;;;4.07;2.50;;;25.00;72.80;;;;;;5107854;28;20646;-61
2023/09/01 19:33:39;;;;;;;3.43;2.20;;;25.00;73.10;;;;;;5108263;28;20202;-61
2023/09/01 19:36:21;;;;;;;3.80;2.47;;;24.90;73.20;;;;;;5084328;28;20210;-61
2023/09/01 19:38:51;;;;;;;5.63;2.50;;;24.90;73.60;;;;;;5073126;28;20726;-61
2023/09/01 19:41:19;;;;;;;3.53;2.10;;;24.80;73.60;;;;;;5095469;28;20308;-61
2023/09/01 19:43:47;;;;;;;6.37;2.90;;;24.80;73.80;;;;;;5105361;28;20207;-61
2023/09/01 19:46:15;;;;;;;8.20;2.40;;;24.80;74.00;;;;;;5105159;28;20209;-61
2023/09/01 19:48:43;;;;;;;2.83;2.10;;;24.70;74.10;;;;;;5077526;28;20296;-61